Time;durP1;ratioP1;P1;durP2;ratioP2;P2;SDS_P1;SDS_P2;PMS_P1;PMS_P2;Temp;Humidity;BMP_temperature;BMP_pressure;BME280_temperature;BME280_humidity;BME280_pressure;Samples;Min_cycle;Max_cycle;Signal;HPM_P1;HPM_P2
2024/04/05 00:01:40;;;;;;;62.67;59.50;;;;;;;;;;5034793;28;20029;-47
2024/04/05 00:04:08;;;;;;;66.25;62.85;;;;;;;;;;5035932;28;20037;-49
2024/04/05 00:06:33;;;;;;;60.33;57.22;;;;;;;;;;5034436;28;20377;-47
2024/04/05 00:08:58;;;;;;;64.95;61.63;;;;;;;;;;5042348;28;20049;-57
2024/04/05 00:11:24;;;;;;;63.40;60.17;;;;;;;;;;5033402;28;20040;-48
2024/04/05 00:13:50;;;;;;;61.20;58.00;;;;;;;;;;5034490;28;20056;-50
2024/04/05 00:16:15;;;;;;;62.90;59.65;;;;;;;;;;5033376;28;20043;-49
2024/04/05 00:18:41;;;;;;;58.40;55.33;;;;;;;;;;5035358;28;20028;-49
2024/04/05 00:21:08;;;;;;;60.35;57.25;;;;;;;;;;5035376;28;20029;-59
2024/04/05 00:23:34;;;;;;;69.78;66.20;;;;;;;;;;5034564;28;20447;-58
2024/04/05 00:26:04;;;;;;;65.00;61.72;;;;;;;;;;5033968;28;20068;-57
2024/04/05 00:28:31;;;;;;;66.30;62.93;;;;;;;;;;5036315;28;20037;-58
2024/04/05 00:30:56;;;;;;;66.10;62.67;;;;;;;;;;5032624;28;20028;-58
2024/04/05 00:33:22;;;;;;;68.45;64.80;;;;;;;;;;5033947;28;20037;-57
2024/04/05 00:35:51;;;;;;;65.28;61.92;;;;;;;;;;5034053;28;20032;-56
2024/04/05 00:38:23;;;;;;;64.47;61.22;;;;;;;;;;5034817;28;20033;-58
2024/04/05 00:40:49;;;;;;;69.63;66.10;;;;;;;;;;5033324;28;20029;-58
2024/04/05 00:43:14;;;;;;;58.97;55.97;;;;;;;;;;5037401;28;20095;-60
2024/04/05 00:45:40;;;;;;;52.60;49.95;;;;;;;;;;5032562;28;20037;-58
2024/04/05 00:48:07;;;;;;;58.67;55.70;;;;;;;;;;5035010;28;20037;-58
2024/04/05 00:50:32;;;;;;;65.68;62.08;;;;;;;;;;5036416;28;20079;-58
2024/04/05 00:52:59;;;;;;;61.97;58.85;;;;;;;;;;5035670;28;20122;-48
2024/04/05 00:55:29;;;;;;;56.17;53.22;;;;;;;;;;5033382;28;20052;-57
2024/04/05 00:58:00;;;;;;;63.72;60.53;;;;;;;;;;5034740;28;20333;-58
2024/04/05 01:00:28;;;;;;;57.28;54.25;;;;;;;;;;5032020;28;20363;-59
2024/04/05 01:02:54;;;;;;;58.95;55.92;;;;;;;;;;5032285;28;20703;-59
2024/04/05 01:05:19;;;;;;;58.72;55.67;;;;;;;;;;5032752;28;20033;-59
2024/04/05 01:07:47;;;;;;;61.80;58.65;;;;;;;;;;5033830;28;20087;-58
2024/04/05 01:10:13;;;;;;;61.55;58.42;;;;;;;;;;5034236;28;20104;-47
2024/04/05 01:12:39;;;;;;;70.15;66.60;;;;;;;;;;5032869;28;20171;-47
2024/04/05 01:15:04;;;;;;;57.10;54.20;;;;;;;;;;5032191;28;20530;-49
2024/04/05 01:17:31;;;;;;;61.30;58.20;;;;;;;;;;5030989;28;20029;-49
2024/04/05 01:19:57;;;;;;;64.72;61.45;;;;;;;;;;5035111;28;24067;-50
2024/04/05 01:22:43;;;;;;;64.28;61.00;;;;;;;;;;5037691;28;20041;-52
2024/04/05 01:25:09;;;;;;;62.08;58.90;;;;;;;;;;5030866;28;20490;-52
2024/04/05 01:27:34;;;;;;;69.60;66.00;;;;;;;;;;5035440;28;20041;-58
2024/04/05 01:29:59;;;;;;;62.30;59.10;;;;;;;;;;5031910;28;20037;-58
2024/04/05 01:32:24;;;;;;;55.28;52.45;;;;;;;;;;5031911;28;20064;-58
2024/04/05 01:34:50;;;;;;;52.72;49.92;;;;;;;;;;5031742;28;20459;-60
2024/04/05 01:37:16;;;;;;;54.97;52.17;;;;;;;;;;5033615;28;20036;-51
2024/04/05 01:39:42;;;;;;;61.92;58.58;;;;;;;;;;5029968;28;20037;-50
2024/04/05 01:42:07;;;;;;;60.15;57.10;;;;;;;;;;5030250;28;20087;-49
2024/04/05 01:44:32;;;;;;;66.28;62.92;;;;;;;;;;5031656;28;20025;-50
2024/04/05 01:46:58;;;;;;;57.40;54.50;;;;;;;;;;5030890;28;20184;-51
2024/04/05 01:49:23;;;;;;;60.03;56.72;;;;;;;;;;5034037;28;20372;-52
2024/04/05 01:51:48;;;;;;;62.40;59.15;;;;;;;;;;5033129;28;20033;-51
2024/04/05 01:54:13;;;;;;;61.13;57.83;;;;;;;;;;5031294;28;20041;-52
2024/04/05 01:56:39;;;;;;;63.92;60.70;;;;;;;;;;5032986;28;20479;-54
2024/04/05 01:59:04;;;;;;;62.75;59.50;;;;;;;;;;5035095;28;20029;-50
2024/04/05 02:01:30;;;;;;;60.80;57.72;;;;;;;;;;5031690;28;20037;-50
2024/04/05 02:03:55;;;;;;;58.63;55.65;;;;;;;;;;5030320;28;20052;-50
2024/04/05 02:06:20;;;;;;;62.78;59.63;;;;;;;;;;5031398;28;20119;-49
2024/04/05 02:08:46;;;;;;;58.25;55.30;;;;;;;;;;5031398;28;20033;-50
2024/04/05 02:11:11;;;;;;;55.65;52.83;;;;;;;;;;5032772;28;20025;-52
2024/04/05 02:13:37;;;;;;;61.38;58.17;;;;;;;;;;5032089;28;20060;-54
2024/04/05 02:16:02;;;;;;;55.05;52.03;;;;;;;;;;5032105;28;20772;-53
2024/04/05 02:18:27;;;;;;;62.67;59.53;;;;;;;;;;5033669;28;20605;-49
2024/04/05 02:20:57;;;;;;;51.45;48.80;;;;;;;;;;5033177;28;20034;-49
2024/04/05 02:23:22;;;;;;;55.55;52.67;;;;;;;;;;5037220;28;20060;-50
2024/04/05 02:25:49;;;;;;;52.47;49.47;;;;;;;;;;5034437;28;20033;-48
2024/04/05 02:28:14;;;;;;;54.42;51.60;;;;;;;;;;5035963;28;20047;-48
2024/04/05 02:30:39;;;;;;;59.80;56.78;;;;;;;;;;5034413;28;20342;-51
2024/04/05 02:33:05;;;;;;;67.50;64.10;;;;;;;;;;5034321;28;20052;-50
2024/04/05 02:35:31;;;;;;;68.20;64.75;;;;;;;;;;5034993;28;20033;-52
2024/04/05 02:37:56;;;;;;;67.97;64.47;;;;;;;;;;5035470;28;20033;-50
2024/04/05 02:40:22;;;;;;;71.80;67.78;;;;;;;;;;5034587;28;20337;-53
2024/04/05 02:42:47;;;;;;;65.10;61.80;;;;;;;;;;5038205;28;20055;-52
2024/04/05 02:45:13;;;;;;;76.20;72.30;;;;;;;;;;5038069;28;20029;-50
2024/04/05 02:47:38;;;;;;;73.65;69.95;;;;;;;;;;5036392;28;20028;-48
2024/04/05 02:50:03;;;;;;;66.78;63.40;;;;;;;;;;5036031;28;20447;-49
2024/04/05 02:52:29;;;;;;;71.20;67.38;;;;;;;;;;5034097;28;20052;-49
2024/04/05 02:54:54;;;;;;;73.43;69.70;;;;;;;;;;5036144;28;20040;-52
2024/04/05 02:57:19;;;;;;;90.07;85.60;;;;;;;;;;5037291;28;20036;-51
2024/04/05 02:59:45;;;;;;;82.68;78.53;;;;;;;;;;5035341;28;20140;-49
2024/04/05 03:02:10;;;;;;;105.28;99.88;;;;;;;;;;5037046;28;20124;-53
2024/04/05 03:04:35;;;;;;;101.85;96.80;;;;;;;;;;5033936;28;20048;-53
2024/04/05 03:07:01;;;;;;;100.20;95.25;;;;;;;;;;5035366;28;20120;-48
2024/04/05 03:09:26;;;;;;;83.95;79.68;;;;;;;;;;5037644;28;20106;-53
2024/04/05 03:11:51;;;;;;;95.63;90.55;;;;;;;;;;5036895;28;20109;-52
2024/04/05 03:14:17;;;;;;;114.50;108.85;;;;;;;;;;5036311;28;20126;-51
2024/04/05 03:16:44;;;;;;;122.18;116.15;;;;;;;;;;5035625;28;20133;-52
2024/04/05 03:19:10;;;;;;;105.90;100.65;;;;;;;;;;5036314;28;20033;-50
2024/04/05 03:21:35;;;;;;;92.57;87.95;;;;;;;;;;5035349;28;20374;-52
2024/04/05 03:24:00;;;;;;;96.30;91.25;;;;;;;;;;5035104;28;20036;-51
2024/04/05 03:26:26;;;;;;;89.97;85.50;;;;;;;;;;5033057;28;20036;-53
2024/04/05 03:28:51;;;;;;;102.68;97.53;;;;;;;;;;5034753;28;20056;-51
2024/04/05 03:31:16;;;;;;;88.97;84.47;;;;;;;;;;5029499;28;20080;-58
2024/04/05 03:33:42;;;;;;;98.30;93.43;;;;;;;;;;5035238;28;20704;-58
2024/04/05 03:36:07;;;;;;;91.75;87.20;;;;;;;;;;5035588;28;20449;-58
2024/04/05 03:38:32;;;;;;;84.50;80.20;;;;;;;;;;5033104;28;20551;-58
2024/04/05 03:41:01;;;;;;;79.05;75.07;;;;;;;;;;5031908;28;20043;-58
2024/04/05 03:43:26;;;;;;;107.25;101.03;;;;;;;;;;5035689;28;20048;-58
2024/04/05 03:45:52;;;;;;;110.22;103.13;;;;;;;;;;5033458;28;20029;-59
2024/04/05 03:48:17;;;;;;;80.68;76.68;;;;;;;;;;5035940;28;20103;-57
2024/04/05 03:50:42;;;;;;;80.40;75.00;;;;;;;;;;5034301;28;20106;-59
2024/04/05 03:53:07;;;;;;;84.82;80.57;;;;;;;;;;5034050;28;20037;-58
2024/04/05 03:55:33;;;;;;;84.95;80.72;;;;;;;;;;5036657;28;20032;-58
2024/04/05 03:57:58;;;;;;;70.60;67.00;;;;;;;;;;5033569;28;20459;-57
2024/04/05 04:00:23;;;;;;;90.72;86.18;;;;;;;;;;5032547;28;20075;-58
2024/04/05 04:02:53;;;;;;;82.38;77.93;;;;;;;;;;5035067;28;20127;-57
2024/04/05 04:05:19;;;;;;;81.28;77.10;;;;;;;;;;5032189;28;20142;-57
2024/04/05 04:07:44;;;;;;;83.30;79.15;;;;;;;;;;5033280;28;20712;-58
2024/04/05 04:10:11;;;;;;;84.15;79.93;;;;;;;;;;5033478;28;20025;-58
2024/04/05 04:12:37;;;;;;;93.88;89.18;;;;;;;;;;5033541;28;20080;-57
2024/04/05 04:15:03;;;;;;;85.63;81.35;;;;;;;;;;5032970;28;20069;-58
2024/04/05 04:17:28;;;;;;;83.22;78.93;;;;;;;;;;5034577;28;20029;-57
2024/04/05 04:19:58;;;;;;;91.38;86.85;;;;;;;;;;5034140;28;20036;-58
2024/04/05 04:22:24;;;;;;;109.05;103.03;;;;;;;;;;5033338;28;20037;-58
2024/04/05 04:24:49;;;;;;;117.72;111.90;;;;;;;;;;5034802;28;20051;-58
2024/04/05 04:27:14;;;;;;;110.50;105.03;;;;;;;;;;5033401;28;20029;-58
2024/04/05 04:29:40;;;;;;;107.35;101.97;;;;;;;;;;5033579;28;20035;-58
2024/04/05 04:32:06;;;;;;;100.25;95.28;;;;;;;;;;5034398;28;20037;-49
2024/04/05 04:34:31;;;;;;;93.43;88.78;;;;;;;;;;5036966;28;20055;-49
2024/04/05 04:36:56;;;;;;;89.00;84.25;;;;;;;;;;5035293;28;20029;-54
2024/04/05 04:39:22;;;;;;;103.88;98.70;;;;;;;;;;5036122;28;20037;-51
2024/04/05 04:41:48;;;;;;;121.95;115.72;;;;;;;;;;5035243;28;20025;-52
2024/04/05 04:44:13;;;;;;;120.05;114.00;;;;;;;;;;5031937;28;20462;-52
2024/04/05 04:46:38;;;;;;;96.30;91.50;;;;;;;;;;5032619;28;20033;-47
2024/04/05 04:49:03;;;;;;;87.85;83.32;;;;;;;;;;5028994;28;20101;-53
2024/04/05 04:51:29;;;;;;;66.13;62.45;;;;;;;;;;5033505;28;20025;-50
2024/04/05 04:53:54;;;;;;;66.78;63.35;;;;;;;;;;5032457;28;20041;-51
2024/04/05 04:56:20;;;;;;;70.75;67.15;;;;;;;;;;5032640;28;20513;-49
2024/04/05 04:58:47;;;;;;;70.55;66.95;;;;;;;;;;5035060;28;20029;-60
2024/04/05 05:01:12;;;;;;;74.72;70.95;;;;;;;;;;5030793;28;20043;-50
2024/04/05 05:03:37;;;;;;;74.72;70.80;;;;;;;;;;5034394;28;20123;-52
2024/04/05 05:06:03;;;;;;;73.60;69.90;;;;;;;;;;5033966;28;20108;-46
2024/04/05 05:08:29;;;;;;;72.95;69.28;;;;;;;;;;5034753;28;20037;-49
2024/04/05 05:10:55;;;;;;;75.38;71.57;;;;;;;;;;5031405;28;20083;-51
2024/04/05 05:13:20;;;;;;;72.60;68.93;;;;;;;;;;5032323;28;20056;-48
2024/04/05 05:15:45;;;;;;;75.38;71.57;;;;;;;;;;5031962;28;20351;-50
2024/04/05 05:18:11;;;;;;;58.55;55.58;;;;;;;;;;5033727;28;20618;-47
2024/04/05 05:20:44;;;;;;;65.85;62.53;;;;;;;;;;5034007;28;20502;-49
2024/04/05 05:23:10;;;;;;;57.78;54.83;;;;;;;;;;5032449;28;20115;-49
2024/04/05 05:25:35;;;;;;;60.72;57.65;;;;;;;;;;5031971;28;20033;-47
2024/04/05 05:28:00;;;;;;;68.03;64.57;;;;;;;;;;5034009;28;20041;-48
2024/04/05 05:30:26;;;;;;;78.60;74.60;;;;;;;;;;5030553;28;20040;-49
2024/04/05 05:32:51;;;;;;;66.88;63.53;;;;;;;;;;5034158;28;20139;-48
2024/04/05 05:35:16;;;;;;;68.00;64.55;;;;;;;;;;5034704;28;20025;-57
2024/04/05 05:37:42;;;;;;;69.15;65.65;;;;;;;;;;5030885;28;20120;-50
2024/04/05 05:40:08;;;;;;;69.30;65.80;;;;;;;;;;5029167;28;20026;-48
2024/04/05 05:42:33;;;;;;;68.90;65.40;;;;;;;;;;5033148;28;20470;-52
2024/04/05 05:44:58;;;;;;;76.75;72.93;;;;;;;;;;5031708;28;20033;-57
2024/04/05 05:47:24;;;;;;;67.55;64.18;;;;;;;;;;5031073;28;20120;-58
2024/04/05 05:49:49;;;;;;;75.05;71.30;;;;;;;;;;5035078;28;20121;-55
2024/04/05 05:52:15;;;;;;;75.03;71.28;;;;;;;;;;5034940;28;20033;-57
2024/04/05 05:54:41;;;;;;;74.28;70.55;;;;;;;;;;5030951;28;20041;-60
2024/04/05 05:57:06;;;;;;;74.63;70.40;;;;;;;;;;5032906;28;20105;-58
2024/04/05 05:59:32;;;;;;;80.82;76.82;;;;;;;;;;5038374;28;20122;-58
2024/04/05 06:01:57;;;;;;;75.90;72.07;;;;;;;;;;5036241;28;20035;-60
2024/04/05 06:04:24;;;;;;;69.97;66.43;;;;;;;;;;5037664;28;20060;-53
2024/04/05 06:06:50;;;;;;;71.90;68.30;;;;;;;;;;5036554;28;20033;-51
2024/04/05 06:09:16;;;;;;;78.40;74.40;;;;;;;;;;5033927;28;20370;-58
2024/04/05 06:11:42;;;;;;;71.50;67.90;;;;;;;;;;5036514;28;20037;-58
2024/04/05 06:14:08;;;;;;;72.93;69.28;;;;;;;;;;5036375;28;20462;-59
2024/04/05 06:16:33;;;;;;;71.97;68.22;;;;;;;;;;5035553;28;20525;-58
2024/04/05 06:18:59;;;;;;;71.85;68.22;;;;;;;;;;5035667;28;20029;-58
2024/04/05 06:21:24;;;;;;;76.57;72.75;;;;;;;;;;5037744;28;20343;-60
2024/04/05 06:23:50;;;;;;;71.07;67.53;;;;;;;;;;5036648;28;20119;-58
2024/04/05 06:26:15;;;;;;;70.18;66.68;;;;;;;;;;5036415;28;20109;-60
2024/04/05 06:28:40;;;;;;;77.70;73.75;;;;;;;;;;5037381;28;20534;-59
2024/04/05 06:31:06;;;;;;;78.18;74.28;;;;;;;;;;5038479;28;20414;-58
2024/04/05 06:33:31;;;;;;;74.15;70.25;;;;;;;;;;5037682;28;20045;-59
2024/04/05 06:36:00;;;;;;;76.63;72.72;;;;;;;;;;5033116;28;20036;-59
2024/04/05 06:38:27;;;;;;;81.55;77.45;;;;;;;;;;5032635;28;20053;-59
2024/04/05 06:40:59;;;;;;;80.68;76.57;;;;;;;;;;5037956;28;20455;-59
2024/04/05 06:43:25;;;;;;;77.43;73.35;;;;;;;;;;5036435;28;20534;-59
2024/04/05 06:45:54;;;;;;;79.53;75.53;;;;;;;;;;5034746;28;20612;-59
2024/04/05 06:48:19;;;;;;;77.25;73.40;;;;;;;;;;5035254;28;20117;-57
2024/04/05 06:50:46;;;;;;;75.20;71.43;;;;;;;;;;5033826;28;20559;-58
2024/04/05 06:53:11;;;;;;;81.72;77.63;;;;;;;;;;5038058;28;20136;-59
2024/04/05 06:55:36;;;;;;;79.15;75.05;;;;;;;;;;5035428;28;20138;-59
2024/04/05 06:58:02;;;;;;;75.70;71.57;;;;;;;;;;5037857;28;20025;-59
2024/04/05 07:00:27;;;;;;;83.43;79.13;;;;;;;;;;5034160;28;20079;-56
2024/04/05 07:02:53;;;;;;;86.30;82.03;;;;;;;;;;5034806;28;20044;-59
2024/04/05 07:05:18;;;;;;;90.78;85.93;;;;;;;;;;5035207;28;20619;-60
2024/04/05 07:07:44;;;;;;;97.80;92.95;;;;;;;;;;5036122;28;20056;-59
2024/04/05 07:10:09;;;;;;;90.60;86.07;;;;;;;;;;5035372;28;20067;-59
2024/04/05 07:12:35;;;;;;;99.30;94.25;;;;;;;;;;5033194;28;20040;-60
2024/04/05 07:15:01;;;;;;;105.95;100.75;;;;;;;;;;5033054;28;20121;-60
2024/04/05 07:17:26;;;;;;;105.82;100.60;;;;;;;;;;5034973;28;20077;-59
2024/04/05 07:19:51;;;;;;;107.60;102.20;;;;;;;;;;5033313;28;20106;-59
2024/04/05 07:22:17;;;;;;;112.07;106.55;;;;;;;;;;5035003;28;20039;-59
2024/04/05 07:24:45;;;;;;;120.63;114.18;;;;;;;;;;5034839;28;20485;-59
2024/04/05 07:27:11;;;;;;;115.03;109.35;;;;;;;;;;5035245;28;20033;-60
2024/04/05 07:29:37;;;;;;;121.63;115.50;;;;;;;;;;5032489;28;20041;-60
2024/04/05 07:32:04;;;;;;;131.77;124.88;;;;;;;;;;5032796;28;20029;-60
2024/04/05 07:34:30;;;;;;;107.93;102.60;;;;;;;;;;5035661;28;20431;-59
2024/04/05 07:36:56;;;;;;;101.88;96.68;;;;;;;;;;5036445;28;20033;-59
2024/04/05 07:39:21;;;;;;;111.50;105.90;;;;;;;;;;5015269;28;20357;-59
2024/04/05 07:41:46;;;;;;;91.22;86.68;;;;;;;;;;5038549;28;20025;-59
2024/04/05 07:44:12;;;;;;;83.45;79.32;;;;;;;;;;5034999;28;20045;-59
2024/04/05 07:46:37;;;;;;;75.60;71.85;;;;;;;;;;5030192;28;20530;-59
2024/04/05 07:49:02;;;;;;;65.13;61.83;;;;;;;;;;5036253;28;20179;-58
2024/04/05 07:51:28;;;;;;;66.13;62.83;;;;;;;;;;5033825;28;20036;-59
2024/04/05 07:53:53;;;;;;;72.65;69.00;;;;;;;;;;5033821;28;20574;-60
2024/04/05 07:56:18;;;;;;;79.32;75.10;;;;;;;;;;5035231;28;20047;-59
2024/04/05 07:58:44;;;;;;;71.50;67.93;;;;;;;;;;5035470;28;20049;-60
2024/04/05 08:01:10;;;;;;;86.28;81.97;;;;;;;;;;5034257;28;20025;-59
2024/04/05 08:03:35;;;;;;;95.80;91.05;;;;;;;;;;5032262;28;20045;-59
2024/04/05 08:06:03;;;;;;;95.25;90.55;;;;;;;;;;5032411;28;20048;-59
2024/04/05 08:08:29;;;;;;;93.70;89.07;;;;;;;;;;5032234;28;20098;-60
2024/04/05 08:11:01;;;;;;;90.57;86.07;;;;;;;;;;5031122;28;20563;-59
2024/04/05 08:13:26;;;;;;;92.82;88.00;;;;;;;;;;5031830;28;20098;-59
2024/04/05 08:15:52;;;;;;;91.40;86.85;;;;;;;;;;5032942;28;20037;-59
2024/04/05 08:18:17;;;;;;;91.03;86.53;;;;;;;;;;5036496;28;20958;-59
2024/04/05 08:20:42;;;;;;;90.15;85.53;;;;;;;;;;5032555;28;20040;-59
2024/04/05 08:23:08;;;;;;;95.70;90.93;;;;;;;;;;5036064;28;20102;-59
2024/04/05 08:25:33;;;;;;;97.75;92.93;;;;;;;;;;5034915;28;20047;-59
2024/04/05 08:27:58;;;;;;;97.65;92.75;;;;;;;;;;5034233;28;20033;-59
2024/04/05 08:30:23;;;;;;;88.15;83.78;;;;;;;;;;5035798;28;20111;-60
2024/04/05 08:32:49;;;;;;;67.47;64.13;;;;;;;;;;5033819;28;20026;-59
2024/04/05 08:35:14;;;;;;;63.25;60.08;;;;;;;;;;5034492;28;20108;-59
2024/04/05 08:37:42;;;;;;;80.65;76.60;;;;;;;;;;5033282;28;20052;-59
2024/04/05 08:40:09;;;;;;;114.10;108.30;;;;;;;;;;5032539;28;20056;-60
2024/04/05 08:42:37;;;;;;;181.88;172.63;;;;;;;;;;5033186;28;20044;-59
2024/04/05 08:45:03;;;;;;;219.02;207.50;;;;;;;;;;5030626;28;20508;-59
2024/04/05 08:47:32;;;;;;;215.07;204.15;;;;;;;;;;5034624;28;20021;-59
2024/04/05 08:49:58;;;;;;;335.15;317.65;;;;;;;;;;5034191;28;20025;-60
2024/04/05 08:52:24;;;;;;;370.48;351.33;;;;;;;;;;5032951;28;20028;-60
2024/04/05 08:54:49;;;;;;;333.02;315.77;;;;;;;;;;5033554;28;20036;-60
2024/04/05 08:57:16;;;;;;;351.15;333.17;;;;;;;;;;5033574;28;20025;-59
2024/04/05 08:59:48;;;;;;;336.27;318.85;;;;;;;;;;5032961;28;20983;-59
2024/04/05 09:02:15;;;;;;;404.67;383.58;;;;;;;;;;5034447;28;20039;-59
2024/04/05 09:04:40;;;;;;;217.13;206.38;;;;;;;;;;5031712;28;20419;-59
2024/04/05 09:07:06;;;;;;;173.68;165.07;;;;;;;;;;5031915;28;20047;-59
2024/04/05 09:09:33;;;;;;;192.35;182.65;;;;;;;;;;5031558;28;20025;-60
2024/04/05 09:12:10;;;;;;;117.03;111.22;;;;;;;;;;5034320;28;20026;-59
2024/04/05 09:14:36;;;;;;;170.02;161.25;;;;;;;;;;5031277;28;20467;-59
2024/04/05 09:17:22;;;;;;;187.18;177.77;;;;;;;;;;5033824;28;20059;-59
2024/04/05 09:19:48;;;;;;;140.60;133.60;;;;;;;;;;5036190;28;20130;-59
2024/04/05 09:22:21;;;;;;;160.15;152.10;;;;;;;;;;5037302;28;20033;-59
2024/04/05 09:24:46;;;;;;;102.07;96.95;;;;;;;;;;5031422;28;20128;-59
2024/04/05 09:27:18;;;;;;;245.73;233.60;;;;;;;;;;5033226;28;20116;-59
2024/04/05 09:29:44;;;;;;;217.15;206.52;;;;;;;;;;5032631;28;20033;-59
2024/04/05 09:32:17;;;;;;;126.20;119.93;;;;;;;;;;5032992;28;20036;-59
2024/04/05 09:34:43;;;;;;;107.43;102.03;;;;;;;;;;5032856;28;20474;-59
2024/04/05 09:37:10;;;;;;;170.20;161.80;;;;;;;;;;5029873;28;20378;-59
2024/04/05 09:39:35;;;;;;;162.02;153.93;;;;;;;;;;5031622;28;20033;-59
2024/04/05 09:42:02;;;;;;;253.82;241.15;;;;;;;;;;5033369;28;20053;-60
2024/04/05 09:44:27;;;;;;;232.63;221.13;;;;;;;;;;5034970;28;20060;-60
2024/04/05 09:46:55;;;;;;;239.43;227.65;;;;;;;;;;5032592;28;20048;-60
2024/04/05 09:49:20;;;;;;;275.40;261.80;;;;;;;;;;5035736;28;20556;-59
2024/04/05 09:51:51;;;;;;;275.48;261.92;;;;;;;;;;5032259;28;20037;-59
2024/04/05 09:54:17;;;;;;;276.08;262.50;;;;;;;;;;5031237;28;20118;-60
2024/04/05 09:56:44;;;;;;;296.10;281.08;;;;;;;;;;5033612;28;20038;-60
2024/04/05 09:59:12;;;;;;;283.55;269.60;;;;;;;;;;5031060;28;20168;-60
2024/04/05 10:01:39;;;;;;;268.35;255.18;;;;;;;;;;5033015;28;20035;-50
2024/04/05 10:04:07;;;;;;;284.25;270.25;;;;;;;;;;5015848;28;20037;-50
2024/04/05 10:06:38;;;;;;;298.83;284.02;;;;;;;;;;5033504;28;20052;-50
2024/04/05 10:09:17;;;;;;;318.67;302.45;;;;;;;;;;5032409;28;20135;-59
2024/04/05 10:11:47;;;;;;;286.83;271.95;;;;;;;;;;5024499;28;20029;-60
2024/04/05 10:14:22;;;;;;;274.13;260.65;;;;;;;;;;5030648;28;20699;-60
2024/04/05 10:16:48;;;;;;;295.60;281.02;;;;;;;;;;5031154;28;20037;-51
2024/04/05 10:19:15;;;;;;;306.55;291.40;;;;;;;;;;5032648;28;20128;-51
2024/04/05 10:21:41;;;;;;;299.05;284.27;;;;;;;;;;5029902;28;20084;-52
2024/04/05 10:24:06;;;;;;;289.65;275.33;;;;;;;;;;5029449;28;20497;-59
2024/04/05 10:26:35;;;;;;;292.25;277.80;;;;;;;;;;5031251;28;20136;-52
2024/04/05 10:29:04;;;;;;;281.98;268.30;;;;;;;;;;5032796;28;20534;-51
2024/04/05 10:31:34;;;;;;;306.10;291.03;;;;;;;;;;5028611;28;20590;-50
2024/04/05 10:34:03;;;;;;;291.00;276.70;;;;;;;;;;5032331;28;20337;-52
2024/04/05 10:36:31;;;;;;;283.52;269.70;;;;;;;;;;5034275;28;20100;-60
2024/04/05 10:38:57;;;;;;;299.13;284.45;;;;;;;;;;5031802;28;20055;-60
2024/04/05 10:41:22;;;;;;;314.33;298.75;;;;;;;;;;5034190;28;20599;-60
2024/04/05 10:43:48;;;;;;;343.10;326.08;;;;;;;;;;5032466;28;20046;-49
2024/04/05 10:46:15;;;;;;;252.93;240.65;;;;;;;;;;5037482;28;20116;-52
2024/04/05 10:48:41;;;;;;;273.85;260.48;;;;;;;;;;5037239;28;20074;-60
2024/04/05 10:51:06;;;;;;;269.15;256.00;;;;;;;;;;5036467;28;20029;-59
2024/04/05 10:53:32;;;;;;;310.60;295.33;;;;;;;;;;5035749;28;20494;-52
2024/04/05 10:55:57;;;;;;;247.43;235.43;;;;;;;;;;5037006;28;20525;-51
2024/04/05 10:58:22;;;;;;;181.00;172.18;;;;;;;;;;5035058;28;20041;-52
2024/04/05 11:00:48;;;;;;;230.85;219.57;;;;;;;;;;5036728;28;20684;-60
2024/04/05 11:03:13;;;;;;;286.23;271.95;;;;;;;;;;5035893;28;20033;-60
2024/04/05 11:05:39;;;;;;;259.60;246.98;;;;;;;;;;5036639;28;20041;-60
2024/04/05 11:08:06;;;;;;;225.23;214.32;;;;;;;;;;5036334;28;20375;-60
2024/04/05 11:10:32;;;;;;;219.00;208.30;;;;;;;;;;5034949;28;20037;-48
2024/04/05 11:12:59;;;;;;;222.80;212.05;;;;;;;;;;5037767;28;20041;-51
2024/04/05 11:15:24;;;;;;;228.52;217.43;;;;;;;;;;5035212;28;20513;-50
2024/04/05 11:18:01;;;;;;;251.32;239.07;;;;;;;;;;5035142;28;20021;-52
2024/04/05 11:20:29;;;;;;;221.27;210.55;;;;;;;;;;5035487;28;20055;-60
2024/04/05 11:22:56;;;;;;;235.93;224.52;;;;;;;;;;5033987;28;20049;-60
2024/04/05 11:25:22;;;;;;;220.15;209.48;;;;;;;;;;5031666;28;20486;-60
2024/04/05 11:27:47;;;;;;;231.15;219.93;;;;;;;;;;5029697;28;20033;-60
2024/04/05 11:30:13;;;;;;;229.80;218.65;;;;;;;;;;5032932;28;20676;-60
2024/04/05 11:32:41;;;;;;;240.55;228.85;;;;;;;;;;5033428;28;20529;-60
2024/04/05 11:35:08;;;;;;;224.02;213.05;;;;;;;;;;5034116;28;20048;-60
2024/04/05 11:37:33;;;;;;;230.45;219.30;;;;;;;;;;5033843;28;20037;-60
2024/04/05 11:39:59;;;;;;;234.63;223.27;;;;;;;;;;5034346;28;20033;-60
2024/04/05 11:42:25;;;;;;;219.18;208.57;;;;;;;;;;5033189;28;20041;-54
2024/04/05 11:44:51;;;;;;;211.30;201.00;;;;;;;;;;5031165;28;20045;-53
2024/04/05 11:47:21;;;;;;;211.70;201.43;;;;;;;;;;5032720;28;20060;-54
2024/04/05 11:49:47;;;;;;;219.82;209.15;;;;;;;;;;5031275;28;20087;-53
2024/04/05 11:52:13;;;;;;;211.45;201.10;;;;;;;;;;5024033;28;20063;-53
2024/04/05 11:54:39;;;;;;;217.95;207.32;;;;;;;;;;5030885;28;20113;-54
2024/04/05 11:57:04;;;;;;;223.70;212.77;;;;;;;;;;5033035;28;20041;-54
2024/04/05 11:59:29;;;;;;;210.63;200.38;;;;;;;;;;5034431;28;20025;-54
2024/04/05 12:01:55;;;;;;;242.70;230.95;;;;;;;;;;5031219;28;20060;-52
2024/04/05 12:04:20;;;;;;;238.70;227.07;;;;;;;;;;5034425;28;20044;-53
2024/04/05 12:06:48;;;;;;;249.57;237.30;;;;;;;;;;5034775;28;20028;-53
2024/04/05 12:09:16;;;;;;;257.30;244.88;;;;;;;;;;5029234;28;20032;-50
2024/04/05 12:11:42;;;;;;;205.15;194.93;;;;;;;;;;5030198;28;20025;-52
2024/04/05 12:14:07;;;;;;;205.88;195.82;;;;;;;;;;5034192;28;20037;-52
2024/04/05 12:16:32;;;;;;;297.63;283.13;;;;;;;;;;5031867;28;20033;-53
2024/04/05 12:18:58;;;;;;;170.25;161.77;;;;;;;;;;5029975;28;20045;-53
2024/04/05 12:21:24;;;;;;;218.02;207.43;;;;;;;;;;5029331;28;20037;-52
2024/04/05 12:23:49;;;;;;;227.85;216.75;;;;;;;;;;5027422;28;20033;-51
2024/04/05 12:26:14;;;;;;;228.43;217.25;;;;;;;;;;5031961;28;20046;-54
2024/04/05 12:28:39;;;;;;;237.82;226.25;;;;;;;;;;5030864;28;20163;-53
2024/04/05 12:31:05;;;;;;;250.93;238.73;;;;;;;;;;5030729;28;20029;-53
2024/04/05 12:33:30;;;;;;;327.45;311.30;;;;;;;;;;5033219;28;20056;-52
2024/04/05 12:36:03;;;;;;;237.82;226.23;;;;;;;;;;5028910;28;21091;-50
2024/04/05 12:38:32;;;;;;;213.77;203.23;;;;;;;;;;5029942;28;20057;-54
2024/04/05 12:40:58;;;;;;;236.07;224.63;;;;;;;;;;5031051;28;20041;-50
2024/04/05 12:43:23;;;;;;;251.52;239.32;;;;;;;;;;5030460;28;20094;-51
2024/04/05 12:45:59;;;;;;;304.65;289.67;;;;;;;;;;5033107;28;20049;-52
2024/04/05 12:48:25;;;;;;;263.95;251.10;;;;;;;;;;5030648;28;20033;-48
2024/04/05 12:51:10;;;;;;;250.68;238.52;;;;;;;;;;5032983;28;20059;-51
2024/04/05 12:53:36;;;;;;;303.55;288.52;;;;;;;;;;5033682;28;20041;-47
2024/04/05 12:56:04;;;;;;;299.90;285.13;;;;;;;;;;5033313;28;20037;-50
2024/04/05 12:58:39;;;;;;;335.38;318.80;;;;;;;;;;5032823;28;20021;-52
2024/04/05 13:01:05;;;;;;;361.05;342.98;;;;;;;;;;5030162;28;20040;-50
2024/04/05 13:03:35;;;;;;;350.52;333.02;;;;;;;;;;5030494;28;20057;-50
2024/04/05 13:06:08;;;;;;;387.95;368.35;;;;;;;;;;5030827;28;20044;-49
2024/04/05 13:08:34;;;;;;;344.25;327.08;;;;;;;;;;5033132;28;20041;-51
2024/04/05 13:11:00;;;;;;;394.02;373.88;;;;;;;;;;5033311;28;20602;-49
2024/04/05 13:13:25;;;;;;;402.27;381.73;;;;;;;;;;5035350;28;20033;-52
2024/04/05 13:15:50;;;;;;;403.10;382.60;;;;;;;;;;5031176;28;20037;-51
2024/04/05 13:18:16;;;;;;;397.98;377.63;;;;;;;;;;5032885;28;20037;-49
2024/04/05 13:20:41;;;;;;;402.15;381.52;;;;;;;;;;5032512;28;20087;-51
2024/04/05 13:23:07;;;;;;;407.25;386.48;;;;;;;;;;5032250;28;20120;-49
2024/04/05 13:25:34;;;;;;;398.73;378.30;;;;;;;;;;5034522;28;20025;-51
2024/04/05 13:28:00;;;;;;;395.08;374.88;;;;;;;;;;5031728;28;20164;-49
2024/04/05 13:30:25;;;;;;;361.02;342.77;;;;;;;;;;5030770;28;20379;-52
2024/04/05 13:32:53;;;;;;;292.20;277.80;;;;;;;;;;5029729;28;20379;-50
2024/04/05 13:35:19;;;;;;;285.95;271.92;;;;;;;;;;5031584;28;20111;-50
2024/04/05 13:37:44;;;;;;;279.08;265.35;;;;;;;;;;5030646;28;20033;-51
2024/04/05 13:40:10;;;;;;;300.20;285.30;;;;;;;;;;5032397;28;20452;-52
2024/04/05 13:42:35;;;;;;;305.63;290.52;;;;;;;;;;5032530;28;20053;-52
2024/04/05 13:45:02;;;;;;;309.60;294.30;;;;;;;;;;5028462;28;20067;-49
2024/04/05 13:47:27;;;;;;;321.27;305.17;;;;;;;;;;5032812;28;20120;-49
2024/04/05 13:49:53;;;;;;;300.92;286.00;;;;;;;;;;5034186;28;20556;-50
2024/04/05 13:52:18;;;;;;;291.98;277.52;;;;;;;;;;5034188;28;20045;-51
2024/04/05 13:54:44;;;;;;;294.88;280.15;;;;;;;;;;5031674;28;20033;-51
2024/04/05 13:57:09;;;;;;;278.27;264.45;;;;;;;;;;5033505;28;20049;-47
2024/04/05 13:59:34;;;;;;;280.77;266.90;;;;;;;;;;5032065;28;20352;-52
2024/04/05 14:02:00;;;;;;;319.58;303.60;;;;;;;;;;5029591;28;20045;-49